createdAt,value
2022-10-13T00:11:50.246Z,63.27
2022-10-13T00:14:16.920Z,63.43
2022-10-13T00:16:42.893Z,63.62
2022-10-13T00:19:14.201Z,62.85
2022-10-13T00:21:40.863Z,62.76
2022-10-13T00:24:06.805Z,62.63
2022-10-13T00:26:32.760Z,62.42
2022-10-13T00:28:59.581Z,62.49
2022-10-13T00:31:25.543Z,62.69
2022-10-13T00:33:51.442Z,62.65
2022-10-13T00:36:17.388Z,62.80
2022-10-13T00:38:44.106Z,62.92
2022-10-13T00:41:10.077Z,62.89
2022-10-13T00:43:35.986Z,63.53
2022-10-13T00:46:01.915Z,63.88
2022-10-13T00:48:27.830Z,63.50
2022-10-13T00:50:54.658Z,63.99
2022-10-13T00:53:20.590Z,63.50
2022-10-13T00:55:46.517Z,64.03
2022-10-13T00:58:12.475Z,64.08
2022-10-13T01:00:39.224Z,64.00
2022-10-13T01:03:05.181Z,64.16
2022-10-13T01:05:31.848Z,64.47
2022-10-13T01:07:57.764Z,64.10
2022-10-13T01:10:24.324Z,63.81
2022-10-13T01:12:51.176Z,64.44
2022-10-13T01:15:17.086Z,64.47
2022-10-13T01:17:43.069Z,64.47
2022-10-13T01:20:09.914Z,65.17
2022-10-13T01:22:36.415Z,65.04
2022-10-13T01:25:02.343Z,64.65
2022-10-13T01:27:28.258Z,64.90
2022-10-13T01:29:54.205Z,64.60
2022-10-13T01:32:20.523Z,64.38
2022-10-13T01:34:47.589Z,64.17
2022-10-13T01:37:13.500Z,64.60
2022-10-13T01:39:39.460Z,65.54
2022-10-13T01:42:05.412Z,65.72
2022-10-13T01:44:32.234Z,64.95
2022-10-13T01:46:58.932Z,65.23
2022-10-13T01:49:24.844Z,64.79
2022-10-13T01:51:50.752Z,64.27
2022-10-13T01:54:16.669Z,64.43
2022-10-13T01:56:42.590Z,63.92
2022-10-13T01:59:08.522Z,63.88
2022-10-13T02:01:35.270Z,64.23
2022-10-13T02:04:02.088Z,64.02
2022-10-13T02:06:28.002Z,63.51
2022-10-13T02:08:53.955Z,63.38
2022-10-13T02:11:19.942Z,63.30
2022-10-13T02:13:45.954Z,63.55
2022-10-13T02:16:11.908Z,63.60
2022-10-13T02:18:38.428Z,63.74
2022-10-13T02:21:04.363Z,63.68
2022-10-13T02:23:30.292Z,63.91
2022-10-13T02:25:57.105Z,64.15
2022-10-13T02:28:23.032Z,64.28
2022-10-13T02:30:48.980Z,64.02
2022-10-13T02:33:14.894Z,63.44
2022-10-13T02:35:41.688Z,63.24
2022-10-13T02:38:07.698Z,63.67
2022-10-13T02:40:33.643Z,63.95
2022-10-13T02:42:59.850Z,64.49
2022-10-13T02:45:27.493Z,64.17
2022-10-13T02:47:53.684Z,63.92
2022-10-13T02:50:19.874Z,63.41
2022-10-13T02:52:46.086Z,63.54
2022-10-13T02:55:12.281Z,63.86
2022-10-13T02:57:38.505Z,63.78
2022-10-13T03:00:04.689Z,63.92
2022-10-13T03:02:30.762Z,63.60
2022-10-13T05:02:59.905Z,65.46
2022-10-13T05:05:25.834Z,65.51
2022-10-13T05:07:52.505Z,65.09
2022-10-13T05:10:18.464Z,64.89
2022-10-13T05:12:44.442Z,64.93
2022-10-13T05:15:11.153Z,64.91
2022-10-13T05:17:37.059Z,64.71
2022-10-13T05:20:02.991Z,64.63
2022-10-13T05:22:28.895Z,65.18
2022-10-13T05:24:54.822Z,65.13
2022-10-13T05:27:20.720Z,64.72
2022-10-13T05:29:47.470Z,64.75
2022-10-13T05:32:14.302Z,64.56
2022-10-13T05:34:41.265Z,64.80
2022-10-13T05:37:07.234Z,64.76
2022-10-13T05:39:33.900Z,65.09
2022-10-13T05:42:00.557Z,65.13
2022-10-13T05:44:26.543Z,65.28
2022-10-13T05:46:52.490Z,65.02
2022-10-13T05:49:18.403Z,65.40
2022-10-13T05:51:44.332Z,65.44
2022-10-13T05:54:10.530Z,65.55
2022-10-13T05:56:37.230Z,65.07
2022-10-13T05:59:03.344Z,64.78
2022-10-13T06:01:29.323Z,64.80
2022-10-13T06:03:55.296Z,65.25
2022-10-13T06:06:22.114Z,65.19
2022-10-13T06:08:48.687Z,65.56
2022-10-13T06:11:15.422Z,65.28
2022-10-13T06:13:41.327Z,65.46
2022-10-13T06:16:07.314Z,65.30
2022-10-13T06:18:33.234Z,65.50
2022-10-13T06:20:59.201Z,65.15
2022-10-13T06:23:25.148Z,65.11
2022-10-13T06:25:51.496Z,65.41
2022-10-13T06:28:18.371Z,65.16
2022-10-13T06:30:44.351Z,65.38
2022-10-13T06:33:10.283Z,65.49
2022-10-13T06:35:36.243Z,65.02
2022-10-13T06:38:03.040Z,65.08
2022-10-13T06:40:29.835Z,64.60
2022-10-13T06:42:56.447Z,64.92
2022-10-13T06:45:22.363Z,64.65
2022-10-13T06:47:48.294Z,65.06
2022-10-13T06:50:14.218Z,65.23
2022-10-13T06:52:40.138Z,65.91
2022-10-13T06:55:06.142Z,66.19
2022-10-13T06:57:32.350Z,66.40
2022-10-13T06:59:58.262Z,66.13
2022-10-13T07:02:25.086Z,65.86
2022-10-13T07:04:50.986Z,65.34
2022-10-13T07:07:16.894Z,65.96
2022-10-13T07:09:42.878Z,66.22
2022-10-13T07:12:08.814Z,66.30
2022-10-13T07:14:34.739Z,66.13
2022-10-13T07:17:03.012Z,65.77
2022-10-13T07:19:29.844Z,65.37
2022-10-13T07:21:55.756Z,64.71
2022-10-13T07:24:21.677Z,64.39
2022-10-13T07:26:47.583Z,64.12
2022-10-13T07:29:13.497Z,63.85
2022-10-13T07:31:40.168Z,63.71
2022-10-13T07:34:06.371Z,63.38
2022-10-13T07:36:33.153Z,63.11
2022-10-13T07:38:59.346Z,62.79
2022-10-13T07:41:25.652Z,62.96
2022-10-13T07:43:52.815Z,62.68
2022-10-13T07:46:20.699Z,62.33
2022-10-13T07:48:51.010Z,61.98
2022-10-13T09:54:28.984Z,52.43
2022-10-13T09:56:54.961Z,52.56
2022-10-13T09:59:21.608Z,52.63
2022-10-13T10:01:48.129Z,52.07
2022-10-13T10:04:14.171Z,52.86
2022-10-13T10:06:40.200Z,51.36
2022-10-13T10:09:06.251Z,52.04
2022-10-13T10:11:32.984Z,50.72
2022-10-13T10:13:59.190Z,50.37
2022-10-13T10:16:26.061Z,50.76
2022-10-13T10:18:57.755Z,50.18
2022-10-13T10:21:25.569Z,50.63
2022-10-13T10:23:51.776Z,49.82
2022-10-13T10:26:23.052Z,50.99
2022-10-13T10:28:50.472Z,51.59
2022-10-13T10:31:17.218Z,52.06
2022-10-13T10:33:43.607Z,52.68
2022-10-13T10:36:10.434Z,51.01
2022-10-13T10:38:36.806Z,50.02
2022-10-13T10:41:02.799Z,50.43
2022-10-13T10:43:28.948Z,51.02
2022-10-13T10:45:55.456Z,49.34
2022-10-13T10:48:21.969Z,49.20
2022-10-13T10:50:48.186Z,49.48
2022-10-13T10:53:14.230Z,47.82
2022-10-13T10:55:40.473Z,48.07
2022-10-13T10:58:07.104Z,47.06
2022-10-13T11:00:33.975Z,48.06
2022-10-13T11:03:00.247Z,49.13
2022-10-13T11:05:26.957Z,49.92
2022-10-13T11:07:53.595Z,50.48
2022-10-13T11:10:20.299Z,51.33
2022-10-13T11:12:47.191Z,51.70
2022-10-13T11:15:13.584Z,50.97
2022-10-13T11:17:40.100Z,51.75
2022-10-13T11:20:06.629Z,52.11
2022-10-13T11:22:33.298Z,50.96
2022-10-13T11:24:59.715Z,50.33
2022-10-13T11:27:26.397Z,48.79
2022-10-13T11:29:52.838Z,49.64
2022-10-13T11:32:19.575Z,47.58
2022-10-13T11:34:46.889Z,47.95
2022-10-13T11:37:13.421Z,47.06
2022-10-13T11:39:39.820Z,46.73
2022-10-13T11:42:06.131Z,48.48
2022-10-13T11:44:32.568Z,48.20
2022-10-13T11:46:59.159Z,48.86
2022-10-13T11:49:25.146Z,47.00
2022-10-13T11:51:51.164Z,48.44
2022-10-13T11:54:17.934Z,49.26
2022-10-13T11:56:48.332Z,47.87
2022-10-13T11:59:15.392Z,47.22
2022-10-13T12:01:42.118Z,48.02
2022-10-13T12:04:08.921Z,50.98
2022-10-13T12:06:35.460Z,51.44
2022-10-13T12:09:01.530Z,50.26
2022-10-13T12:11:27.820Z,48.71
2022-10-13T12:13:54.302Z,47.23
2022-10-13T12:16:20.451Z,47.32
2022-10-13T12:18:46.997Z,47.36
2022-10-13T12:21:13.356Z,47.45
2022-10-13T12:23:40.112Z,45.51
2022-10-13T12:26:06.551Z,46.75
2022-10-13T12:28:33.254Z,47.43
2022-10-13T12:30:59.661Z,45.84
2022-10-13T12:33:26.452Z,46.05
2022-10-13T12:35:53.779Z,46.25
2022-10-13T12:57:04.908Z,43.92
2022-10-13T14:37:03.990Z,49.65
2022-10-13T14:39:30.563Z,49.12
2022-10-13T14:41:56.588Z,49.00
2022-10-13T14:44:23.528Z,48.46
2022-10-13T14:46:49.643Z,49.07
2022-10-13T14:49:15.753Z,49.64
2022-10-13T14:51:42.404Z,49.68
2022-10-13T14:54:09.074Z,49.81
2022-10-13T14:56:35.294Z,50.53
2022-10-13T14:59:02.040Z,49.41
2022-10-13T15:01:28.856Z,49.48
2022-10-13T15:03:54.927Z,50.08
2022-10-13T15:06:21.787Z,50.29
2022-10-13T15:08:47.926Z,50.43
2022-10-13T15:11:14.027Z,50.18
2022-10-13T15:13:40.590Z,50.51
2022-10-13T15:16:06.611Z,50.96
2022-10-13T15:18:33.009Z,50.88
2022-10-13T15:20:59.669Z,51.27
2022-10-13T15:23:26.523Z,52.56
2022-10-13T15:25:52.463Z,53.31
2022-10-13T15:28:19.268Z,53.22
2022-10-13T15:30:45.194Z,52.94
2022-10-13T15:33:11.107Z,52.62
2022-10-13T15:35:37.046Z,53.94
2022-10-13T15:38:02.994Z,54.76
2022-10-13T15:40:28.952Z,54.42
2022-10-13T15:42:54.885Z,54.23
2022-10-13T15:45:21.723Z,54.43
2022-10-13T15:47:48.009Z,54.93
2022-10-13T15:50:13.932Z,54.33
2022-10-13T15:52:39.984Z,54.36
2022-10-13T15:55:06.048Z,54.97
2022-10-13T15:57:32.002Z,54.90
2022-10-13T15:59:57.993Z,54.81
2022-10-13T16:02:24.045Z,54.66
2022-10-13T16:04:49.992Z,54.44
2022-10-13T16:07:16.753Z,54.23
2022-10-13T16:09:43.422Z,53.81
2022-10-13T16:12:09.403Z,53.85
2022-10-13T16:14:35.364Z,54.16
2022-10-13T16:17:02.105Z,54.63
2022-10-13T16:19:28.924Z,54.51
2022-10-13T16:21:54.846Z,54.69
2022-10-13T16:24:20.771Z,55.34
2022-10-13T16:26:46.684Z,55.23
2022-10-13T16:29:13.258Z,55.51
2022-10-13T16:31:39.201Z,55.21
2022-10-13T16:34:05.105Z,55.75
2022-10-13T16:36:31.773Z,55.52
2022-10-13T16:38:58.587Z,56.04
2022-10-13T16:41:24.491Z,56.25
2022-10-13T16:43:50.432Z,55.85
2022-10-13T16:46:17.021Z,55.73
2022-10-13T16:48:42.980Z,55.47
2022-10-13T16:51:09.758Z,55.56
2022-10-13T16:53:35.668Z,55.87
2022-10-13T16:56:01.597Z,55.95
2022-10-13T16:58:27.537Z,56.28
2022-10-13T17:00:53.533Z,56.08
2022-10-13T17:03:20.388Z,56.80
2022-10-13T17:05:46.294Z,57.06
2022-10-13T17:08:12.209Z,56.80
2022-10-13T17:10:38.434Z,56.97
2022-10-13T17:13:04.634Z,57.22
2022-10-13T17:15:30.841Z,57.39
2022-10-13T17:17:57.073Z,57.37
2022-10-13T17:20:23.618Z,57.69
2022-10-13T17:22:49.892Z,57.73
2022-10-13T17:27:56.701Z,58.19
2022-10-13T19:29:48.080Z,60.67
2022-10-13T19:32:14.218Z,60.61
2022-10-13T19:34:41.101Z,60.89
2022-10-13T19:37:07.526Z,61.14
2022-10-13T19:39:33.439Z,60.85
2022-10-13T19:41:59.412Z,61.14
2022-10-13T19:44:26.182Z,61.97
2022-10-13T19:46:52.184Z,62.85
2022-10-13T19:49:18.826Z,62.72
2022-10-13T19:51:44.747Z,62.79
2022-10-13T19:54:10.778Z,62.61
2022-10-13T19:56:36.679Z,62.75
2022-10-13T19:59:02.610Z,62.68
2022-10-13T20:01:28.517Z,62.75
2022-10-13T20:03:54.491Z,62.74
2022-10-13T20:06:20.444Z,62.43
2022-10-13T20:08:46.382Z,62.78
2022-10-13T20:11:12.298Z,63.10
2022-10-13T20:13:38.201Z,62.76
2022-10-13T20:16:04.124Z,62.95
2022-10-13T20:18:30.026Z,62.54
2022-10-13T20:20:56.034Z,62.70
2022-10-13T20:23:22.281Z,62.88
2022-10-13T20:25:48.772Z,62.70
2022-10-13T20:28:14.713Z,62.33
2022-10-13T20:30:40.650Z,62.61
2022-10-13T20:33:06.724Z,62.29
2022-10-13T20:35:33.447Z,61.85
2022-10-13T20:37:59.378Z,61.91
2022-10-13T20:40:25.278Z,61.69
2022-10-13T20:42:51.297Z,62.71
2022-10-13T20:45:17.231Z,63.50
2022-10-13T20:47:44.079Z,63.78
2022-10-13T20:50:10.018Z,63.53
2022-10-13T20:52:35.930Z,63.30
2022-10-13T20:55:01.881Z,63.14
2022-10-13T20:57:28.655Z,62.87
2022-10-13T20:59:54.585Z,62.41
2022-10-13T21:02:23.519Z,62.93
2022-10-13T21:04:49.516Z,63.89
2022-10-13T21:07:16.206Z,64.48
2022-10-13T21:09:42.115Z,63.97
2022-10-13T21:12:08.042Z,63.85
2022-10-13T21:14:33.984Z,63.90
2022-10-13T21:16:59.960Z,63.89
2022-10-13T21:19:25.885Z,63.53
2022-10-13T21:21:52.350Z,63.26
2022-10-13T21:24:18.286Z,63.44
2022-10-13T21:26:44.236Z,63.65
2022-10-13T21:29:10.145Z,63.60
2022-10-13T21:31:37.020Z,63.25
2022-10-13T21:34:03.681Z,63.47
2022-10-13T21:36:29.618Z,63.24
2022-10-13T21:38:55.549Z,63.11
2022-10-13T21:41:21.474Z,62.86
2022-10-13T21:43:47.442Z,63.19
2022-10-13T21:46:13.361Z,63.98
2022-10-13T21:48:39.303Z,63.47
2022-10-13T21:51:05.227Z,63.29
2022-10-13T21:53:31.596Z,63.02
2022-10-13T21:55:58.168Z,62.99
2022-10-13T21:58:24.082Z,63.06
2022-10-13T22:00:50.102Z,63.12
2022-10-13T22:03:16.049Z,62.96
2022-10-13T22:05:43.701Z,63.20
2022-10-13T22:08:09.909Z,63.40
2022-10-13T22:10:36.193Z,63.50
2022-10-13T22:13:02.402Z,63.71
2022-10-13T22:15:28.611Z,63.81
